createdAt,value
2019-04-20T00:01:28.051Z,100820.98
2019-04-20T00:03:55.625Z,100817.76
2019-04-20T00:06:27.075Z,100822.75
2019-04-20T00:09:04.957Z,100814.77
2019-04-20T00:11:41.005Z,100815.38
2019-04-20T00:14:10.329Z,100819.06
2019-04-20T00:16:35.848Z,100817.98
2019-04-20T00:19:07.697Z,100809.89
2019-04-20T00:21:51.977Z,100809.30
2019-04-20T00:24:26.884Z,100810.37
2019-04-20T00:27:15.894Z,100808.32
2019-04-20T00:29:46.376Z,100816.56
2019-04-20T00:32:11.473Z,100794.41
2019-04-20T00:34:36.459Z,100809.86
2019-04-20T00:37:05.188Z,100802.81
2019-04-20T00:39:38.287Z,100802.64
2019-04-20T00:42:12.639Z,100798.48
2019-04-20T00:44:45.477Z,100794.46
2019-04-20T00:47:25.294Z,100799.95
2019-04-20T00:49:58.658Z,100803.56
2019-04-20T00:52:50.914Z,100789.03
2019-04-20T00:54:52.285Z,100797.48
2019-04-20T00:57:34.688Z,100796.89
2019-04-20T01:00:16.428Z,100800.58
2019-04-20T01:02:40.325Z,100796.25
2019-04-20T01:05:20.206Z,100800.81
2019-04-20T01:07:57.007Z,100794.84
2019-04-20T01:10:30.319Z,100800.70
2019-04-20T01:13:06.062Z,100800.00
2019-04-20T01:15:40.665Z,100796.79
2019-04-20T01:18:03.362Z,100795.70
2019-04-20T01:20:34.186Z,100797.52
2019-04-20T01:23:10.067Z,100795.02
2019-04-20T01:25:40.914Z,100795.11
2019-04-20T01:28:27.786Z,100797.40
2019-04-20T01:30:55.093Z,100797.16
2019-04-20T01:33:29.031Z,100801.91
2019-04-20T01:36:03.543Z,100800.23
2019-04-20T01:38:35.978Z,100798.47
2019-04-20T01:40:53.010Z,100806.30
2019-04-20T01:43:24.743Z,100803.23
2019-04-20T01:46:03.309Z,100804.28
2019-04-20T01:48:33.951Z,100802.77
2019-04-20T01:51:07.355Z,100808.45
2019-04-20T01:53:51.362Z,100805.59
2019-04-20T01:56:24.378Z,100806.20
2019-04-20T01:59:16.349Z,100810.25
2019-04-20T02:02:03.196Z,100812.02
2019-04-20T02:04:43.436Z,100813.72
2019-04-20T02:07:12.001Z,100815.25
2019-04-20T02:09:49.765Z,100816.81
2019-04-20T02:12:21.898Z,100818.09
2019-04-20T02:14:52.194Z,100811.31
2019-04-20T02:17:29.845Z,100817.05
2019-04-20T02:20:10.474Z,100814.64
2019-04-20T02:22:45.259Z,100817.81
2019-04-20T02:24:59.450Z,100808.89
2019-04-20T02:27:40.637Z,100807.48
2019-04-20T02:30:44.951Z,100812.81
2019-04-20T02:33:34.759Z,100811.88
2019-04-20T02:36:03.663Z,100815.20
2019-04-20T02:41:28.337Z,100810.77
2019-04-20T02:44:06.113Z,100812.65
2019-04-20T02:46:24.674Z,100814.23
2019-04-20T02:49:10.644Z,100812.31
2019-04-20T02:51:37.106Z,100813.18
2019-04-20T02:56:40.261Z,100810.09
2019-04-20T02:59:42.263Z,100807.58
2019-04-20T03:01:42.023Z,100815.09
2019-04-20T03:03:58.100Z,100805.33
2019-04-20T03:06:41.242Z,100806.16
2019-04-20T03:09:19.887Z,100809.96
2019-04-20T03:14:21.786Z,100805.07
2019-04-20T03:16:56.725Z,100804.56
2019-04-20T03:19:23.670Z,100804.05
2019-04-20T03:22:09.245Z,100804.33
2019-04-20T03:24:44.315Z,100793.13
2019-04-20T03:27:07.109Z,100796.20
2019-04-20T03:30:07.834Z,100792.92
2019-04-20T03:35:22.522Z,100791.48
2019-04-20T03:37:48.559Z,100791.57
2019-04-20T03:40:12.792Z,100797.52
2019-04-20T03:42:33.065Z,100797.13
2019-04-20T03:45:09.725Z,100798.16
2019-04-20T03:47:49.680Z,100795.39
2019-04-20T03:50:35.563Z,100794.62
2019-04-20T03:53:17.233Z,100799.55
2019-04-20T03:55:51.334Z,100801.70
2019-04-20T03:58:33.421Z,100800.92
2019-04-20T04:01:32.872Z,100801.09
2019-04-20T04:04:09.483Z,100803.75
2019-04-20T04:06:33.524Z,100801.69
2019-04-20T04:09:10.099Z,100799.44
2019-04-20T04:11:43.547Z,100808.22
2019-04-20T04:14:01.204Z,100803.90
2019-04-20T04:16:37.440Z,100806.87
2019-04-20T04:19:12.784Z,100808.73
2019-04-20T04:21:56.049Z,100809.31
2019-04-20T04:24:25.043Z,100809.70
2019-04-20T04:26:58.898Z,100809.66
2019-04-20T04:29:39.682Z,100812.24
2019-04-20T04:32:25.558Z,100804.42
2019-04-20T04:34:40.501Z,100812.45
2019-04-20T04:37:19.059Z,100806.84
2019-04-20T04:39:51.325Z,100809.03
2019-04-20T04:42:32.343Z,100813.03
2019-04-20T04:44:43.661Z,100811.84
2019-04-20T04:47:08.369Z,100815.61
2019-04-20T04:49:41.342Z,100818.68
2019-04-20T04:52:15.741Z,100823.27
2019-04-20T04:54:53.113Z,100833.45
2019-04-20T04:57:15.919Z,100833.48
2019-04-20T04:59:46.722Z,100834.61
2019-04-20T05:02:17.934Z,100838.91
2019-04-20T05:05:39.228Z,100835.39
2019-04-20T05:07:58.510Z,100843.31
2019-04-20T05:10:19.495Z,100846.75
2019-04-20T05:12:53.112Z,100849.55
2019-04-20T05:15:39.314Z,100853.44
2019-04-20T05:18:16.183Z,100850.82
2019-04-20T05:20:54.682Z,100857.62
2019-04-20T05:23:28.006Z,100853.33
2019-04-20T05:26:20.338Z,100859.36
2019-04-20T05:28:46.106Z,100861.05
2019-04-20T05:31:09.785Z,100856.72
2019-04-20T05:34:02.360Z,100855.06
2019-04-20T05:36:28.103Z,100854.09
2019-04-20T05:39:16.119Z,100856.56
2019-04-20T05:41:37.387Z,100855.84
2019-04-20T05:44:44.262Z,100858.47
2019-04-20T05:47:15.267Z,100862.47
2019-04-20T05:49:40.336Z,100859.77
2019-04-20T05:52:31.308Z,100858.28
2019-04-20T05:54:50.835Z,100863.26
2019-04-20T05:57:26.329Z,100868.82
2019-04-20T06:00:02.181Z,100869.72
2019-04-20T06:02:27.736Z,100859.16
2019-04-20T06:05:11.390Z,100871.53
2019-04-20T06:08:00.705Z,100868.92
2019-04-20T06:10:52.274Z,100868.78
2019-04-20T06:13:22.469Z,100874.42
2019-04-20T06:16:03.959Z,100876.12
2019-04-20T06:18:42.478Z,100870.94
2019-04-20T06:21:32.333Z,100879.05
2019-04-20T06:24:02.518Z,100873.01
2019-04-20T06:26:51.908Z,100882.61
2019-04-20T06:29:10.075Z,100874.47
2019-04-20T06:31:45.889Z,100879.12
2019-04-20T06:36:53.528Z,100881.20
2019-04-20T06:39:48.877Z,100893.77
2019-04-20T06:44:35.713Z,100895.16
2019-04-20T06:47:24.702Z,100893.73
2019-04-20T06:49:38.095Z,100896.11
2019-04-20T06:55:02.852Z,100897.03
2019-04-20T06:57:40.754Z,100893.02
2019-04-20T07:00:15.811Z,100882.42
2019-04-20T07:05:18.954Z,100895.81
2019-04-20T07:07:56.378Z,100897.63
2019-04-20T07:10:25.553Z,100900.23
2019-04-20T07:12:49.317Z,100896.92
2019-04-20T07:15:25.521Z,100898.36
2019-04-20T07:18:09.444Z,100900.16
2019-04-20T07:20:51.193Z,100897.32
2019-04-20T07:23:31.212Z,100905.77
2019-04-20T07:26:04.877Z,100907.54
2019-04-20T07:28:43.606Z,100908.25
2019-04-20T07:31:01.746Z,100906.73
2019-04-20T07:33:39.356Z,100908.40
2019-04-20T07:36:11.770Z,100912.58
2019-04-20T07:38:46.578Z,100907.97
2019-04-20T07:41:23.606Z,100909.09
2019-04-20T07:43:59.047Z,100902.84
2019-04-20T07:46:34.881Z,100899.86
2019-04-20T07:48:54.290Z,100907.28
2019-04-20T07:51:16.147Z,100908.80
2019-04-20T07:53:59.507Z,100911.63
2019-04-20T07:56:37.045Z,100909.31
2019-04-20T07:58:52.398Z,100905.05
2019-04-20T08:02:05.345Z,100909.78
2019-04-20T08:04:32.402Z,100911.17
2019-04-20T08:06:53.110Z,100900.08
2019-04-20T08:09:28.858Z,100902.50
2019-04-20T08:12:22.483Z,100897.57
2019-04-20T08:14:55.382Z,100892.82
2019-04-20T08:17:34.261Z,100892.44
2019-04-20T08:19:50.918Z,100902.66
2019-04-20T08:22:34.384Z,100899.16
2019-04-20T08:24:55.311Z,100900.03
2019-04-20T08:27:17.988Z,100903.19
2019-04-20T08:30:21.557Z,100908.27
2019-04-20T08:32:53.958Z,100907.25
2019-04-20T08:35:31.897Z,100903.48
2019-04-20T08:38:26.438Z,100903.20
2019-04-20T08:40:43.587Z,100903.67
2019-04-20T08:43:20.955Z,100902.37
2019-04-20T08:45:48.761Z,100897.78
2019-04-20T08:48:25.424Z,100904.81
2019-04-20T08:50:51.862Z,100896.89
2019-04-20T08:53:26.488Z,100897.17
2019-04-20T08:55:50.102Z,100896.16
2019-04-20T08:58:09.171Z,100893.05
2019-04-20T09:00:48.687Z,100899.83
2019-04-20T09:03:22.849Z,100895.89
2019-04-20T09:05:57.767Z,100884.98
2019-04-20T09:08:24.899Z,100893.09
2019-04-20T09:11:10.260Z,100885.60
2019-04-20T09:13:34.319Z,100889.95
2019-04-20T09:15:58.019Z,100886.59
2019-04-20T09:18:43.248Z,100891.89
2019-04-20T09:21:13.668Z,100891.25
2019-04-20T09:23:57.653Z,100889.92
2019-04-20T09:26:32.451Z,100885.97
2019-04-20T09:29:12.770Z,100875.36
2019-04-20T09:31:39.247Z,100878.97
2019-04-20T09:34:21.961Z,100871.31
2019-04-20T09:37:22.441Z,100871.97
2019-04-20T09:39:44.931Z,100871.20
2019-04-20T09:42:31.542Z,100864.32
2019-04-20T09:45:04.459Z,100874.11
2019-04-20T09:47:41.936Z,100866.08
2019-04-20T09:50:23.613Z,100865.17
2019-04-20T09:52:57.036Z,100870.95
2019-04-20T09:55:24.428Z,100863.53
2019-04-20T09:58:01.071Z,100863.68
2019-04-20T10:00:37.351Z,100856.68
2019-04-20T10:02:52.621Z,100848.86
2019-04-20T10:05:23.423Z,100852.30
2019-04-20T10:07:58.645Z,100858.45
2019-04-20T10:10:33.867Z,100852.92
2019-04-20T10:13:00.534Z,100852.84
2019-04-20T10:15:32.997Z,100854.53
2019-04-20T10:18:03.880Z,100845.07
2019-04-20T10:20:38.218Z,100848.39
2019-04-20T10:23:07.062Z,100848.66
2019-04-20T10:25:38.468Z,100847.19
2019-04-20T10:28:09.585Z,100841.99
2019-04-20T10:30:40.915Z,100849.88
2019-04-20T10:33:13.349Z,100852.08
2019-04-20T10:35:45.561Z,100848.03
2019-04-20T10:38:32.121Z,100837.03
2019-04-20T10:41:08.251Z,100836.90
2019-04-20T10:43:33.426Z,100831.98
2019-04-20T10:46:04.724Z,100836.59
2019-04-20T10:48:40.234Z,100831.98
2019-04-20T10:51:09.151Z,100830.41
2019-04-20T10:53:40.425Z,100824.27
2019-04-20T10:56:11.653Z,100820.84
2019-04-20T10:58:43.382Z,100828.31
2019-04-20T11:01:15.679Z,100824.86
2019-04-20T11:03:46.898Z,100820.70
2019-04-20T11:06:18.620Z,100811.36
2019-04-20T11:08:50.758Z,100810.33
2019-04-20T11:11:26.503Z,100812.55
2019-04-20T11:13:55.339Z,100805.91
2019-04-20T11:16:26.480Z,100810.08
2019-04-20T11:18:57.786Z,100807.23
2019-04-20T11:21:28.502Z,100810.84
2019-04-20T11:24:00.385Z,100808.80
2019-04-20T11:26:32.163Z,100806.26
2019-04-20T11:29:06.418Z,100807.41
2019-04-20T11:31:43.104Z,100801.36
2019-04-20T11:34:10.388Z,100807.91
2019-04-20T11:36:41.590Z,100802.27
2019-04-20T11:39:14.579Z,100802.31
2019-04-20T11:41:45.761Z,100801.31
2019-04-20T11:44:17.815Z,100796.59
2019-04-20T11:46:50.290Z,100799.64
2019-04-20T11:49:21.634Z,100791.44
2019-04-20T11:51:52.336Z,100805.34
2019-04-20T11:54:24.343Z,100796.42
2019-04-20T11:56:55.594Z,100793.97
2019-04-20T11:59:27.410Z,100783.23
2019-04-20T12:02:06.433Z,100792.92
2019-04-20T12:04:54.356Z,100777.97
2019-04-20T12:07:19.011Z,100775.93
2019-04-20T12:09:51.489Z,100783.66
2019-04-20T12:12:34.349Z,100776.94
2019-04-20T12:14:56.698Z,100766.18
2019-04-20T12:17:27.471Z,100770.98
2019-04-20T12:19:59.780Z,100770.59
2019-04-20T12:22:30.841Z,100761.15
2019-04-20T12:25:02.569Z,100771.17
2019-04-20T12:27:34.490Z,100763.61
2019-04-20T12:30:06.235Z,100748.36
2019-04-20T12:32:42.965Z,100749.05
2019-04-20T12:35:09.968Z,100746.34
2019-04-20T12:37:41.057Z,100748.06
2019-04-20T12:40:12.245Z,100742.53
2019-04-20T12:42:44.216Z,100745.73
2019-04-20T12:45:15.700Z,100751.07
2019-04-20T12:47:48.669Z,100742.24
2019-04-20T12:50:19.681Z,100749.39
2019-04-20T12:52:50.742Z,100746.20
2019-04-20T12:55:22.815Z,100738.19
2019-04-20T12:57:54.488Z,100739.95
2019-04-20T13:00:41.359Z,100732.20
2019-04-20T13:03:13.732Z,100732.34
2019-04-20T13:05:45.878Z,100733.09
2019-04-20T13:08:21.727Z,100720.02
2019-04-20T13:11:06.936Z,100716.41
2019-04-20T13:13:44.230Z,100712.09
2019-04-20T13:16:28.126Z,100704.26
2019-04-20T13:19:01.602Z,100713.30
2019-04-20T13:21:32.497Z,100702.31
2019-04-20T13:24:03.408Z,100699.58
2019-04-20T13:26:35.168Z,100698.02
2019-04-20T13:29:06.780Z,100698.32
2019-04-20T13:31:37.984Z,100698.28
2019-04-20T13:34:09.660Z,100696.05
2019-04-20T13:36:41.900Z,100690.30
2019-04-20T13:39:14.281Z,100678.81
2019-04-20T13:41:58.809Z,100682.31
2019-04-20T13:44:18.023Z,100677.56
2019-04-20T13:46:49.244Z,100670.28
2019-04-20T13:49:20.820Z,100667.71
2019-04-20T13:51:52.828Z,100675.14
2019-04-20T13:54:26.641Z,100664.27
2019-04-20T13:56:57.517Z,100664.43
2019-04-20T13:59:37.746Z,100664.47
2019-04-20T14:02:33.100Z,100663.21
2019-04-20T14:05:05.059Z,100659.91
2019-04-20T14:07:37.575Z,100651.13
2019-04-20T14:10:09.228Z,100649.63
2019-04-20T14:12:53.344Z,100645.45
2019-04-20T14:15:13.498Z,100654.13
2019-04-20T14:17:44.476Z,100643.03
2019-04-20T14:20:18.665Z,100644.16
2019-04-20T14:22:49.175Z,100643.63
2019-04-20T14:25:20.834Z,100646.28
2019-04-20T14:27:52.898Z,100630.89
2019-04-20T14:30:24.803Z,100627.10
2019-04-20T14:32:56.804Z,100632.56
2019-04-20T14:35:29.104Z,100625.23
2019-04-20T14:38:00.121Z,100620.37
2019-04-20T14:40:32.377Z,100619.58
2019-04-20T14:43:03.562Z,100617.25
2019-04-20T14:45:34.404Z,100609.55
2019-04-20T14:48:05.775Z,100610.91
2019-04-20T14:50:38.047Z,100609.70
2019-04-20T14:53:11.937Z,100610.37
2019-04-20T14:55:47.138Z,100602.95
2019-04-20T14:58:42.181Z,100603.86
2019-04-20T15:01:36.612Z,100600.09
2019-04-20T15:04:17.761Z,100593.98
2019-04-20T15:06:48.690Z,100596.29
2019-04-20T15:09:26.705Z,100585.95
2019-04-20T15:12:04.448Z,100592.38
2019-04-20T15:14:44.778Z,100574.89
2019-04-20T15:17:30.299Z,100576.73
2019-04-20T15:20:30.424Z,100578.59
2019-04-20T15:23:17.563Z,100578.98
2019-04-20T15:25:50.650Z,100576.29
2019-04-20T15:28:28.550Z,100573.23
2019-04-20T15:31:06.397Z,100570.67
2019-04-20T15:33:41.057Z,100562.30
2019-04-20T15:36:17.987Z,100567.77
2019-04-20T15:38:53.344Z,100564.30
2019-04-20T15:41:29.308Z,100561.50
2019-04-20T15:44:03.531Z,100551.69
2019-04-20T15:46:38.263Z,100547.00
2019-04-20T15:49:15.877Z,100542.76
2019-04-20T15:51:49.959Z,100549.23
2019-04-20T15:54:29.503Z,100544.81
2019-04-20T15:57:12.744Z,100540.92
2019-04-20T15:59:42.234Z,100543.34
2019-04-20T16:02:29.708Z,100544.73
2019-04-20T16:05:12.341Z,100542.47
2019-04-20T16:07:54.496Z,100537.58
2019-04-20T16:10:23.320Z,100540.16
2019-04-20T16:13:11.833Z,100537.89
2019-04-20T16:15:35.853Z,100546.60
2019-04-20T16:18:10.240Z,100536.52
2019-04-20T16:20:50.714Z,100535.23
2019-04-20T16:23:21.060Z,100529.83
2019-04-20T16:26:21.772Z,100533.85
2019-04-20T16:28:57.631Z,100534.70
2019-04-20T16:31:36.344Z,100526.83
2019-04-20T16:34:13.735Z,100527.25
2019-04-20T16:36:53.001Z,100523.59
2019-04-20T16:39:28.267Z,100523.98
2019-04-20T16:42:02.441Z,100520.61
2019-04-20T16:44:38.894Z,100518.27
2019-04-20T16:47:12.357Z,100516.62
2019-04-20T16:49:46.941Z,100516.89
2019-04-20T16:52:26.385Z,100512.34
2019-04-20T16:55:02.163Z,100502.23
2019-04-20T16:57:37.324Z,100503.80
2019-04-20T17:00:15.642Z,100503.17
2019-04-20T17:02:54.290Z,100505.95
2019-04-20T17:05:33.236Z,100497.56
2019-04-20T17:08:15.172Z,100498.44
2019-04-20T17:10:51.692Z,100497.70
2019-04-20T17:13:36.694Z,100498.31
2019-04-20T17:16:15.653Z,100496.83
2019-04-20T17:18:53.192Z,100494.36
2019-04-20T17:21:30.665Z,100490.55
2019-04-20T17:24:09.086Z,100495.55
2019-04-20T17:26:53.101Z,100496.50
2019-04-20T17:29:30.217Z,100495.86
2019-04-20T17:32:09.813Z,100501.61
2019-04-20T17:34:57.859Z,100494.92
2019-04-20T17:37:16.659Z,100498.27
2019-04-20T17:40:11.220Z,100493.86
2019-04-20T17:42:50.796Z,100496.19
2019-04-20T17:45:28.585Z,100494.27
2019-04-20T17:48:14.616Z,100503.30
2019-04-20T17:50:55.978Z,100499.95
2019-04-20T17:53:24.026Z,100501.54
2019-04-20T17:55:50.028Z,100499.80
2019-04-20T17:58:27.960Z,100497.20
2019-04-20T18:01:23.998Z,100501.84
2019-04-20T18:04:10.777Z,100500.18
2019-04-20T18:06:34.873Z,100505.74
2019-04-20T18:09:05.341Z,100506.88
2019-04-20T18:11:25.665Z,100503.38
2019-04-20T18:14:04.262Z,100507.12
2019-04-20T18:16:50.861Z,100506.72
2019-04-20T18:19:21.735Z,100505.23
2019-04-20T18:22:13.983Z,100510.77
2019-04-20T18:25:08.236Z,100506.41
2019-04-20T18:27:37.563Z,100509.44
2019-04-20T18:30:07.097Z,100515.92
2019-04-20T18:32:27.498Z,100510.49
2019-04-20T18:35:04.756Z,100508.43
2019-04-20T18:37:34.436Z,100508.70
2019-04-20T18:40:11.384Z,100511.15
2019-04-20T18:42:43.483Z,100509.44
2019-04-20T18:45:28.408Z,100510.73
2019-04-20T18:48:03.942Z,100501.30
2019-04-20T18:50:24.533Z,100502.63
2019-04-20T18:52:49.841Z,100509.84
2019-04-20T18:55:30.192Z,100511.84
2019-04-20T18:57:55.108Z,100515.87
2019-04-20T19:00:31.909Z,100517.12
2019-04-20T19:03:09.693Z,100519.00
2019-04-20T19:05:31.672Z,100520.14
2019-04-20T19:08:06.612Z,100519.45
2019-04-20T19:10:39.619Z,100517.34
2019-04-20T19:13:37.602Z,100516.67
2019-04-20T19:16:32.551Z,100519.43
2019-04-20T19:19:16.370Z,100522.91
2019-04-20T19:21:35.290Z,100522.68
2019-04-20T19:24:12.172Z,100521.15
2019-04-20T19:26:44.967Z,100519.24
2019-04-20T19:29:22.419Z,100527.56
2019-04-20T19:32:06.034Z,100524.74
2019-04-20T19:34:33.543Z,100520.83
2019-04-20T19:37:05.049Z,100516.33
2019-04-20T19:39:40.232Z,100517.27
2019-04-20T19:42:08.597Z,100516.81
2019-04-20T19:44:44.948Z,100516.56
2019-04-20T19:47:21.343Z,100512.88
2019-04-20T19:49:44.138Z,100522.05
2019-04-20T19:52:36.501Z,100513.36
2019-04-20T19:54:54.932Z,100520.97
2019-04-20T19:57:32.011Z,100511.22
2019-04-20T19:59:49.647Z,100519.91
2019-04-20T20:02:18.055Z,100510.63
2019-04-20T20:04:53.607Z,100511.77
2019-04-20T20:07:29.884Z,100513.78
2019-04-20T20:09:58.415Z,100510.57
2019-04-20T20:12:27.450Z,100512.72
2019-04-20T20:14:59.551Z,100509.41
2019-04-20T20:17:48.107Z,100509.03
2019-04-20T20:20:26.318Z,100512.22
2019-04-20T20:22:41.162Z,100507.69
2019-04-20T20:25:09.668Z,100506.12
2019-04-20T20:27:49.201Z,100512.91
2019-04-20T20:30:23.341Z,100512.07
2019-04-20T20:33:07.046Z,100508.48
2019-04-20T20:35:25.041Z,100507.31
2019-04-20T20:37:56.968Z,100506.62
2019-04-20T20:40:29.862Z,100514.08
2019-04-20T20:43:07.441Z,100518.84
2019-04-20T20:45:33.577Z,100515.53
2019-04-20T20:48:15.817Z,100517.58
2019-04-20T20:50:56.143Z,100518.91
2019-04-20T20:53:16.335Z,100524.41
2019-04-20T20:55:44.342Z,100520.28
2019-04-20T20:58:18.114Z,100520.26
2019-04-20T21:00:54.106Z,100524.55
2019-04-20T21:03:24.720Z,100519.91
2019-04-20T21:05:51.582Z,100517.53
2019-04-20T21:08:23.903Z,100513.09
2019-04-20T21:10:54.927Z,100520.55
2019-04-20T21:13:34.520Z,100526.38
2019-04-20T21:16:03.950Z,100523.81
2019-04-20T21:18:50.452Z,100519.55
2019-04-20T21:21:19.158Z,100523.80
2019-04-20T21:23:48.091Z,100520.33
2019-04-20T21:26:17.794Z,100519.76
2019-04-20T21:28:43.921Z,100516.45
2019-04-20T21:31:21.694Z,100517.30
2019-04-20T21:33:47.400Z,100516.09
2019-04-20T21:36:24.139Z,100516.56
2019-04-20T21:38:51.830Z,100515.61
2019-04-20T21:41:25.359Z,100516.70
2019-04-20T21:43:56.046Z,100517.27
2019-04-20T21:46:31.922Z,100520.48
2019-04-20T21:49:11.940Z,100527.84
2019-04-20T21:51:44.142Z,100524.50
2019-04-20T21:54:05.561Z,100525.60
2019-04-20T21:56:48.794Z,100518.59
2019-04-20T21:59:18.882Z,100520.97
2019-04-20T22:01:57.766Z,100521.34
2019-04-20T22:04:16.705Z,100520.98
2019-04-20T22:06:50.126Z,100523.23
2019-04-20T22:09:25.084Z,100518.72
2019-04-20T22:11:56.077Z,100522.30
2019-04-20T22:14:31.563Z,100527.05
2019-04-20T22:17:02.230Z,100522.65
2019-04-20T22:19:41.941Z,100520.86
2019-04-20T22:22:16.142Z,100523.34
2019-04-20T22:24:50.541Z,100523.10
2019-04-20T22:27:20.122Z,100532.49
2019-04-20T22:29:44.041Z,100527.17
2019-04-20T22:32:17.274Z,100526.93
2019-04-20T22:34:57.149Z,100522.77
2019-04-20T22:37:27.001Z,100519.55
2019-04-20T22:39:57.690Z,100515.39
2019-04-20T22:42:31.284Z,100517.39
2019-04-20T22:45:05.270Z,100516.45
2019-04-20T22:47:33.998Z,100512.03
2019-04-20T22:50:21.973Z,100506.80
2019-04-20T22:52:48.698Z,100504.36
2019-04-20T22:55:38.995Z,100506.50
2019-04-20T22:57:53.829Z,100500.39
2019-04-20T23:00:31.249Z,100493.32
2019-04-20T23:02:49.560Z,100488.83
2019-04-20T23:05:22.795Z,100489.34
2019-04-20T23:07:54.727Z,100485.14
2019-04-20T23:10:34.034Z,100481.92
2019-04-20T23:12:59.694Z,100479.59
2019-04-20T23:15:32.267Z,100474.44
2019-04-20T23:18:04.295Z,100477.16
2019-04-20T23:20:38.459Z,100475.77
2019-04-20T23:23:11.000Z,100473.62
2019-04-20T23:25:40.960Z,100473.91
2019-04-20T23:28:14.766Z,100470.52
2019-04-20T23:30:45.784Z,100465.72
2019-04-20T23:33:18.028Z,100461.42
2019-04-20T23:35:54.586Z,100462.39
2019-04-20T23:38:24.586Z,100458.63
2019-04-20T23:40:55.603Z,100452.30
2019-04-20T23:43:33.684Z,100450.92
2019-04-20T23:46:26.506Z,100448.84
2019-04-20T23:49:20.015Z,100448.34
2019-04-20T23:52:05.486Z,100445.00
2019-04-20T23:54:23.648Z,100449.47
2019-04-20T23:56:51.177Z,100445.97
2019-04-20T23:59:27.765Z,100442.98
